sensor_id;sensor_type;location;lat;lon;timestamp;P1;durP1;ratioP1;P2;durP2;ratioP2
57635;SDS011;43465;50.728;4.160;2023-10-19T00:01:56;2.25;;;1.05;;
57635;SDS011;43465;50.728;4.160;2023-10-19T00:04:24;4.57;;;1.20;;
57635;SDS011;43465;50.728;4.160;2023-10-19T00:06:50;2.00;;;0.98;;
57635;SDS011;43465;50.728;4.160;2023-10-19T00:09:18;2.60;;;0.77;;
57635;SDS011;43465;50.728;4.160;2023-10-19T00:11:45;2.78;;;1.02;;
57635;SDS011;43465;50.728;4.160;2023-10-19T00:14:12;5.10;;;0.75;;
57635;SDS011;43465;50.728;4.160;2023-10-19T00:16:44;3.30;;;1.00;;
57635;SDS011;43465;50.728;4.160;2023-10-19T00:19:19;4.00;;;1.08;;
57635;SDS011;43465;50.728;4.160;2023-10-19T00:21:46;7.40;;;0.93;;
57635;SDS011;43465;50.728;4.160;2023-10-19T00:24:20;4.25;;;0.90;;
57635;SDS011;43465;50.728;4.160;2023-10-19T00:26:49;3.90;;;1.13;;
57635;SDS011;43465;50.728;4.160;2023-10-19T00:29:18;4.20;;;0.85;;
57635;SDS011;43465;50.728;4.160;2023-10-19T00:31:59;3.58;;;1.05;;
57635;SDS011;43465;50.728;4.160;2023-10-19T00:34:26;2.90;;;1.20;;
57635;SDS011;43465;50.728;4.160;2023-10-19T00:36:54;4.70;;;0.82;;
57635;SDS011;43465;50.728;4.160;2023-10-19T00:39:26;2.60;;;0.82;;
57635;SDS011;43465;50.728;4.160;2023-10-19T00:41:52;4.65;;;1.08;;
57635;SDS011;43465;50.728;4.160;2023-10-19T00:44:23;2.38;;;0.75;;
57635;SDS011;43465;50.728;4.160;2023-10-19T00:47:09;4.18;;;0.95;;
57635;SDS011;43465;50.728;4.160;2023-10-19T00:49:38;8.55;;;1.30;;
57635;SDS011;43465;50.728;4.160;2023-10-19T00:52:04;4.13;;;0.73;;
57635;SDS011;43465;50.728;4.160;2023-10-19T00:54:41;4.63;;;0.90;;
57635;SDS011;43465;50.728;4.160;2023-10-19T00:59:44;3.88;;;0.98;;
57635;SDS011;43465;50.728;4.160;2023-10-19T01:02:25;3.28;;;0.95;;
57635;SDS011;43465;50.728;4.160;2023-10-19T01:04:51;4.55;;;0.93;;
57635;SDS011;43465;50.728;4.160;2023-10-19T01:07:24;2.72;;;0.68;;
57635;SDS011;43465;50.728;4.160;2023-10-19T01:09:51;2.97;;;1.08;;
57635;SDS011;43465;50.728;4.160;2023-10-19T01:12:19;6.03;;;0.88;;
57635;SDS011;43465;50.728;4.160;2023-10-19T01:17:58;4.35;;;1.05;;
57635;SDS011;43465;50.728;4.160;2023-10-19T01:20:28;6.15;;;1.00;;
57635;SDS011;43465;50.728;4.160;2023-10-19T01:22:55;3.05;;;1.00;;
57635;SDS011;43465;50.728;4.160;2023-10-19T01:28:22;5.47;;;1.17;;
57635;SDS011;43465;50.728;4.160;2023-10-19T01:30:53;3.25;;;1.30;;
57635;SDS011;43465;50.728;4.160;2023-10-19T01:33:19;5.97;;;1.35;;
57635;SDS011;43465;50.728;4.160;2023-10-19T01:35:49;6.55;;;2.28;;
57635;SDS011;43465;50.728;4.160;2023-10-19T01:38:33;8.68;;;2.85;;
57635;SDS011;43465;50.728;4.160;2023-10-19T01:43:25;10.43;;;3.80;;
57635;SDS011;43465;50.728;4.160;2023-10-19T01:46:00;10.43;;;5.22;;
57635;SDS011;43465;50.728;4.160;2023-10-19T01:48:30;10.60;;;5.55;;
57635;SDS011;43465;50.728;4.160;2023-10-19T01:51:01;15.95;;;6.18;;
57635;SDS011;43465;50.728;4.160;2023-10-19T01:53:35;10.73;;;5.38;;
57635;SDS011;43465;50.728;4.160;2023-10-19T01:56:04;11.55;;;4.80;;
57635;SDS011;43465;50.728;4.160;2023-10-19T01:58:37;12.25;;;5.10;;
57635;SDS011;43465;50.728;4.160;2023-10-19T02:01:04;9.95;;;4.55;;
57635;SDS011;43465;50.728;4.160;2023-10-19T02:04:00;13.93;;;4.68;;
57635;SDS011;43465;50.728;4.160;2023-10-19T02:06:29;10.70;;;4.28;;
57635;SDS011;43465;50.728;4.160;2023-10-19T02:08:59;11.45;;;4.03;;
57635;SDS011;43465;50.728;4.160;2023-10-19T02:11:57;10.23;;;3.95;;
57635;SDS011;43465;50.728;4.160;2023-10-19T02:14:26;13.85;;;4.40;;
57635;SDS011;43465;50.728;4.160;2023-10-19T02:16:57;11.68;;;4.55;;
57635;SDS011;43465;50.728;4.160;2023-10-19T02:19:26;12.32;;;4.15;;
57635;SDS011;43465;50.728;4.160;2023-10-19T02:21:53;8.95;;;3.53;;
57635;SDS011;43465;50.728;4.160;2023-10-19T02:24:29;9.05;;;3.13;;
57635;SDS011;43465;50.728;4.160;2023-10-19T02:26:55;10.63;;;3.10;;
57635;SDS011;43465;50.728;4.160;2023-10-19T02:29:22;8.57;;;2.53;;
57635;SDS011;43465;50.728;4.160;2023-10-19T02:31:48;6.25;;;2.30;;
57635;SDS011;43465;50.728;4.160;2023-10-19T02:34:14;8.13;;;2.30;;
57635;SDS011;43465;50.728;4.160;2023-10-19T02:36:41;10.05;;;2.20;;
57635;SDS011;43465;50.728;4.160;2023-10-19T02:39:09;10.15;;;2.20;;
57635;SDS011;43465;50.728;4.160;2023-10-19T02:41:37;7.63;;;1.73;;
57635;SDS011;43465;50.728;4.160;2023-10-19T02:44:04;10.68;;;2.55;;
57635;SDS011;43465;50.728;4.160;2023-10-19T02:46:39;7.63;;;2.38;;
57635;SDS011;43465;50.728;4.160;2023-10-19T02:49:07;9.05;;;2.85;;
57635;SDS011;43465;50.728;4.160;2023-10-19T02:51:40;12.27;;;4.50;;
57635;SDS011;43465;50.728;4.160;2023-10-19T02:54:09;13.70;;;5.07;;
57635;SDS011;43465;50.728;4.160;2023-10-19T02:56:43;19.17;;;5.53;;
57635;SDS011;43465;50.728;4.160;2023-10-19T02:59:12;15.00;;;4.55;;
57635;SDS011;43465;50.728;4.160;2023-10-19T03:01:40;15.68;;;5.60;;
57635;SDS011;43465;50.728;4.160;2023-10-19T03:04:09;11.27;;;4.47;;
57635;SDS011;43465;50.728;4.160;2023-10-19T03:06:37;8.02;;;4.28;;
57635;SDS011;43465;50.728;4.160;2023-10-19T03:09:05;11.52;;;4.20;;
57635;SDS011;43465;50.728;4.160;2023-10-19T03:11:41;8.98;;;3.30;;
57635;SDS011;43465;50.728;4.160;2023-10-19T03:14:08;10.35;;;3.53;;
57635;SDS011;43465;50.728;4.160;2023-10-19T03:16:35;11.48;;;3.75;;
57635;SDS011;43465;50.728;4.160;2023-10-19T03:19:01;13.82;;;3.75;;
57635;SDS011;43465;50.728;4.160;2023-10-19T03:21:28;10.38;;;3.78;;
57635;SDS011;43465;50.728;4.160;2023-10-19T03:23:58;11.57;;;3.97;;
57635;SDS011;43465;50.728;4.160;2023-10-19T03:26:27;10.45;;;3.38;;
57635;SDS011;43465;50.728;4.160;2023-10-19T03:28:56;9.77;;;3.15;;
57635;SDS011;43465;50.728;4.160;2023-10-19T03:31:26;12.15;;;3.22;;
57635;SDS011;43465;50.728;4.160;2023-10-19T03:33:52;15.68;;;3.63;;
57635;SDS011;43465;50.728;4.160;2023-10-19T03:36:24;7.95;;;3.85;;
57635;SDS011;43465;50.728;4.160;2023-10-19T03:38:51;13.02;;;3.38;;
57635;SDS011;43465;50.728;4.160;2023-10-19T03:41:18;11.75;;;3.55;;
57635;SDS011;43465;50.728;4.160;2023-10-19T03:43:51;14.77;;;3.88;;
57635;SDS011;43465;50.728;4.160;2023-10-19T03:46:22;14.80;;;3.97;;
57635;SDS011;43465;50.728;4.160;2023-10-19T03:48:59;13.85;;;3.83;;
57635;SDS011;43465;50.728;4.160;2023-10-19T03:51:35;16.92;;;4.30;;
57635;SDS011;43465;50.728;4.160;2023-10-19T03:54:05;16.38;;;4.18;;
57635;SDS011;43465;50.728;4.160;2023-10-19T03:56:50;11.68;;;3.42;;
57635;SDS011;43465;50.728;4.160;2023-10-19T03:59:20;15.02;;;3.63;;
57635;SDS011;43465;50.728;4.160;2023-10-19T04:01:46;10.40;;;3.60;;
57635;SDS011;43465;50.728;4.160;2023-10-19T04:04:13;12.43;;;3.08;;
57635;SDS011;43465;50.728;4.160;2023-10-19T04:06:39;11.55;;;2.92;;
57635;SDS011;43465;50.728;4.160;2023-10-19T04:09:19;8.40;;;3.05;;
57635;SDS011;43465;50.728;4.160;2023-10-19T04:11:45;11.88;;;3.55;;
57635;SDS011;43465;50.728;4.160;2023-10-19T04:14:14;8.10;;;2.58;;
57635;SDS011;43465;50.728;4.160;2023-10-19T04:16:43;10.80;;;3.08;;
57635;SDS011;43465;50.728;4.160;2023-10-19T04:19:12;7.82;;;3.38;;
57635;SDS011;43465;50.728;4.160;2023-10-19T04:21:41;15.15;;;3.42;;
57635;SDS011;43465;50.728;4.160;2023-10-19T04:24:11;12.15;;;3.45;;
57635;SDS011;43465;50.728;4.160;2023-10-19T04:26:38;10.75;;;3.17;;
57635;SDS011;43465;50.728;4.160;2023-10-19T04:29:04;13.65;;;3.17;;
57635;SDS011;43465;50.728;4.160;2023-10-19T04:34:17;16.77;;;3.17;;
57635;SDS011;43465;50.728;4.160;2023-10-19T04:36:46;11.00;;;2.25;;
57635;SDS011;43465;50.728;4.160;2023-10-19T04:39:14;11.85;;;2.67;;
57635;SDS011;43465;50.728;4.160;2023-10-19T04:41:44;10.50;;;2.42;;
57635;SDS011;43465;50.728;4.160;2023-10-19T04:44:10;9.35;;;2.95;;
57635;SDS011;43465;50.728;4.160;2023-10-19T04:46:36;10.25;;;2.33;;
57635;SDS011;43465;50.728;4.160;2023-10-19T04:49:02;11.27;;;2.33;;
57635;SDS011;43465;50.728;4.160;2023-10-19T04:51:31;10.73;;;2.85;;
57635;SDS011;43465;50.728;4.160;2023-10-19T04:53:56;9.40;;;3.00;;
57635;SDS011;43465;50.728;4.160;2023-10-19T04:56:22;13.82;;;3.15;;
57635;SDS011;43465;50.728;4.160;2023-10-19T04:58:48;9.85;;;2.80;;
57635;SDS011;43465;50.728;4.160;2023-10-19T05:01:14;14.25;;;3.10;;
57635;SDS011;43465;50.728;4.160;2023-10-19T05:03:40;12.07;;;2.95;;
57635;SDS011;43465;50.728;4.160;2023-10-19T05:06:06;8.18;;;2.40;;
57635;SDS011;43465;50.728;4.160;2023-10-19T05:08:32;7.82;;;2.60;;
57635;SDS011;43465;50.728;4.160;2023-10-19T05:10:58;13.52;;;3.08;;
57635;SDS011;43465;50.728;4.160;2023-10-19T05:13:24;11.50;;;3.35;;
57635;SDS011;43465;50.728;4.160;2023-10-19T05:15:51;14.68;;;3.38;;
57635;SDS011;43465;50.728;4.160;2023-10-19T05:18:21;11.63;;;2.70;;
57635;SDS011;43465;50.728;4.160;2023-10-19T05:20:50;8.32;;;2.80;;
57635;SDS011;43465;50.728;4.160;2023-10-19T05:23:20;11.70;;;3.00;;
57635;SDS011;43465;50.728;4.160;2023-10-19T05:25:47;12.18;;;3.25;;
57635;SDS011;43465;50.728;4.160;2023-10-19T05:28:12;16.95;;;4.38;;
57635;SDS011;43465;50.728;4.160;2023-10-19T05:30:39;14.63;;;3.22;;
57635;SDS011;43465;50.728;4.160;2023-10-19T05:33:05;12.82;;;2.97;;
57635;SDS011;43465;50.728;4.160;2023-10-19T05:35:31;12.00;;;3.10;;
57635;SDS011;43465;50.728;4.160;2023-10-19T05:38:00;10.07;;;3.00;;
57635;SDS011;43465;50.728;4.160;2023-10-19T05:40:26;10.50;;;2.38;;
57635;SDS011;43465;50.728;4.160;2023-10-19T05:42:55;10.32;;;3.13;;
57635;SDS011;43465;50.728;4.160;2023-10-19T05:45:22;10.95;;;2.80;;
57635;SDS011;43465;50.728;4.160;2023-10-19T05:47:49;13.38;;;3.38;;
57635;SDS011;43465;50.728;4.160;2023-10-19T05:50:14;9.50;;;2.60;;
57635;SDS011;43465;50.728;4.160;2023-10-19T05:52:41;11.75;;;2.78;;
57635;SDS011;43465;50.728;4.160;2023-10-19T05:55:08;14.95;;;3.08;;
57635;SDS011;43465;50.728;4.160;2023-10-19T05:57:35;8.30;;;2.58;;
57635;SDS011;43465;50.728;4.160;2023-10-19T06:00:05;8.65;;;2.53;;
57635;SDS011;43465;50.728;4.160;2023-10-19T06:02:32;14.10;;;2.50;;
57635;SDS011;43465;50.728;4.160;2023-10-19T06:04:59;11.55;;;2.72;;
57635;SDS011;43465;50.728;4.160;2023-10-19T06:07:25;11.20;;;2.60;;
57635;SDS011;43465;50.728;4.160;2023-10-19T06:09:51;12.32;;;2.60;;
57635;SDS011;43465;50.728;4.160;2023-10-19T06:12:17;11.68;;;2.50;;
57635;SDS011;43465;50.728;4.160;2023-10-19T06:14:43;13.88;;;2.53;;
57635;SDS011;43465;50.728;4.160;2023-10-19T06:17:09;20.52;;;3.45;;
57635;SDS011;43465;50.728;4.160;2023-10-19T06:19:35;12.07;;;2.65;;
57635;SDS011;43465;50.728;4.160;2023-10-19T06:22:00;13.40;;;2.63;;
57635;SDS011;43465;50.728;4.160;2023-10-19T06:24:27;15.13;;;2.40;;
57635;SDS011;43465;50.728;4.160;2023-10-19T06:26:53;15.25;;;2.83;;
57635;SDS011;43465;50.728;4.160;2023-10-19T06:29:19;17.42;;;3.25;;
57635;SDS011;43465;50.728;4.160;2023-10-19T06:31:44;16.17;;;3.75;;
57635;SDS011;43465;50.728;4.160;2023-10-19T06:34:10;17.23;;;2.97;;
57635;SDS011;43465;50.728;4.160;2023-10-19T06:36:36;18.25;;;3.45;;
57635;SDS011;43465;50.728;4.160;2023-10-19T06:39:02;17.13;;;2.65;;
57635;SDS011;43465;50.728;4.160;2023-10-19T06:41:31;14.90;;;2.90;;
57635;SDS011;43465;50.728;4.160;2023-10-19T06:43:56;9.52;;;2.67;;
57635;SDS011;43465;50.728;4.160;2023-10-19T06:46:23;16.70;;;2.83;;
57635;SDS011;43465;50.728;4.160;2023-10-19T06:48:49;15.88;;;2.53;;
57635;SDS011;43465;50.728;4.160;2023-10-19T06:51:16;13.48;;;2.75;;
57635;SDS011;43465;50.728;4.160;2023-10-19T06:53:42;15.98;;;2.90;;
57635;SDS011;43465;50.728;4.160;2023-10-19T06:56:07;12.88;;;2.75;;
57635;SDS011;43465;50.728;4.160;2023-10-19T06:58:33;17.75;;;3.38;;
57635;SDS011;43465;50.728;4.160;2023-10-19T07:00:59;17.30;;;2.80;;
57635;SDS011;43465;50.728;4.160;2023-10-19T07:03:30;14.48;;;2.40;;
57635;SDS011;43465;50.728;4.160;2023-10-19T07:05:56;15.82;;;2.60;;
57635;SDS011;43465;50.728;4.160;2023-10-19T07:08:23;18.45;;;3.10;;
57635;SDS011;43465;50.728;4.160;2023-10-19T07:10:48;17.80;;;2.90;;
57635;SDS011;43465;50.728;4.160;2023-10-19T07:13:14;11.90;;;2.75;;
57635;SDS011;43465;50.728;4.160;2023-10-19T07:15:41;12.85;;;2.67;;
57635;SDS011;43465;50.728;4.160;2023-10-19T07:18:09;16.35;;;2.70;;
57635;SDS011;43465;50.728;4.160;2023-10-19T07:20:35;15.23;;;2.80;;
57635;SDS011;43465;50.728;4.160;2023-10-19T07:23:04;13.73;;;2.78;;
57635;SDS011;43465;50.728;4.160;2023-10-19T07:25:52;13.27;;;2.67;;
57635;SDS011;43465;50.728;4.160;2023-10-19T07:28:22;13.23;;;2.97;;
57635;SDS011;43465;50.728;4.160;2023-10-19T07:30:51;14.05;;;2.65;;
57635;SDS011;43465;50.728;4.160;2023-10-19T07:33:17;12.23;;;2.50;;
57635;SDS011;43465;50.728;4.160;2023-10-19T07:35:48;15.18;;;3.08;;
57635;SDS011;43465;50.728;4.160;2023-10-19T07:38:20;12.40;;;2.42;;
57635;SDS011;43465;50.728;4.160;2023-10-19T07:40:47;13.90;;;2.55;;
57635;SDS011;43465;50.728;4.160;2023-10-19T07:43:12;13.70;;;3.13;;
57635;SDS011;43465;50.728;4.160;2023-10-19T07:45:38;16.08;;;3.20;;
57635;SDS011;43465;50.728;4.160;2023-10-19T07:48:04;14.10;;;2.33;;
57635;SDS011;43465;50.728;4.160;2023-10-19T07:50:37;18.10;;;2.72;;
57635;SDS011;43465;50.728;4.160;2023-10-19T07:53:05;15.95;;;2.70;;
57635;SDS011;43465;50.728;4.160;2023-10-19T07:55:31;15.45;;;3.05;;
57635;SDS011;43465;50.728;4.160;2023-10-19T07:57:57;21.15;;;2.90;;
57635;SDS011;43465;50.728;4.160;2023-10-19T08:00:25;12.85;;;3.03;;
57635;SDS011;43465;50.728;4.160;2023-10-19T08:02:51;13.70;;;2.45;;
57635;SDS011;43465;50.728;4.160;2023-10-19T08:05:18;15.48;;;2.85;;
57635;SDS011;43465;50.728;4.160;2023-10-19T08:07:45;19.08;;;3.63;;
57635;SDS011;43465;50.728;4.160;2023-10-19T08:10:14;14.95;;;2.65;;
57635;SDS011;43465;50.728;4.160;2023-10-19T08:12:42;15.80;;;2.83;;
57635;SDS011;43465;50.728;4.160;2023-10-19T08:15:09;13.38;;;2.70;;
57635;SDS011;43465;50.728;4.160;2023-10-19T08:17:40;13.95;;;2.75;;
57635;SDS011;43465;50.728;4.160;2023-10-19T08:20:07;16.20;;;3.28;;
57635;SDS011;43465;50.728;4.160;2023-10-19T08:22:36;12.38;;;2.50;;
57635;SDS011;43465;50.728;4.160;2023-10-19T08:25:02;12.18;;;2.88;;
57635;SDS011;43465;50.728;4.160;2023-10-19T08:27:29;13.93;;;2.97;;
57635;SDS011;43465;50.728;4.160;2023-10-19T08:29:56;14.77;;;3.50;;
57635;SDS011;43465;50.728;4.160;2023-10-19T08:32:22;15.50;;;3.10;;
57635;SDS011;43465;50.728;4.160;2023-10-19T08:34:47;15.23;;;2.90;;
57635;SDS011;43465;50.728;4.160;2023-10-19T08:37:13;18.60;;;3.22;;
57635;SDS011;43465;50.728;4.160;2023-10-19T08:39:39;14.13;;;3.08;;
57635;SDS011;43465;50.728;4.160;2023-10-19T08:42:05;18.10;;;3.60;;
57635;SDS011;43465;50.728;4.160;2023-10-19T08:44:31;13.43;;;2.80;;
57635;SDS011;43465;50.728;4.160;2023-10-19T08:46:57;14.32;;;2.88;;
57635;SDS011;43465;50.728;4.160;2023-10-19T08:49:24;12.48;;;3.13;;
57635;SDS011;43465;50.728;4.160;2023-10-19T08:51:54;16.65;;;3.83;;
57635;SDS011;43465;50.728;4.160;2023-10-19T08:54:21;11.93;;;2.88;;
57635;SDS011;43465;50.728;4.160;2023-10-19T08:56:46;16.52;;;3.35;;
57635;SDS011;43465;50.728;4.160;2023-10-19T08:59:15;15.73;;;3.65;;
57635;SDS011;43465;50.728;4.160;2023-10-19T09:01:41;14.45;;;3.05;;
57635;SDS011;43465;50.728;4.160;2023-10-19T09:04:13;14.55;;;2.65;;
57635;SDS011;43465;50.728;4.160;2023-10-19T09:06:39;16.00;;;3.03;;
57635;SDS011;43465;50.728;4.160;2023-10-19T09:09:10;24.38;;;3.47;;
57635;SDS011;43465;50.728;4.160;2023-10-19T09:11:44;20.45;;;3.20;;
57635;SDS011;43465;50.728;4.160;2023-10-19T09:14:13;9.93;;;3.03;;
57635;SDS011;43465;50.728;4.160;2023-10-19T09:19:38;13.55;;;2.80;;
57635;SDS011;43465;50.728;4.160;2023-10-19T09:24:33;16.33;;;2.88;;
57635;SDS011;43465;50.728;4.160;2023-10-19T09:27:01;13.40;;;2.90;;
57635;SDS011;43465;50.728;4.160;2023-10-19T09:29:27;12.00;;;2.88;;
57635;SDS011;43465;50.728;4.160;2023-10-19T09:31:53;15.25;;;3.28;;
57635;SDS011;43465;50.728;4.160;2023-10-19T09:34:23;13.50;;;3.50;;
57635;SDS011;43465;50.728;4.160;2023-10-19T09:36:56;15.10;;;3.05;;
57635;SDS011;43465;50.728;4.160;2023-10-19T09:39:25;14.57;;;3.40;;
57635;SDS011;43465;50.728;4.160;2023-10-19T09:42:10;16.42;;;3.20;;
57635;SDS011;43465;50.728;4.160;2023-10-19T09:44:47;10.88;;;2.83;;
57635;SDS011;43465;50.728;4.160;2023-10-19T09:47:38;12.48;;;2.80;;
57635;SDS011;43465;50.728;4.160;2023-10-19T09:50:06;14.35;;;2.83;;
57635;SDS011;43465;50.728;4.160;2023-10-19T09:52:35;13.02;;;2.90;;
57635;SDS011;43465;50.728;4.160;2023-10-19T09:55:05;11.75;;;3.05;;
57635;SDS011;43465;50.728;4.160;2023-10-19T10:00:14;12.38;;;2.67;;
57635;SDS011;43465;50.728;4.160;2023-10-19T10:02:43;14.82;;;2.42;;
57635;SDS011;43465;50.728;4.160;2023-10-19T10:08:41;11.60;;;2.75;;
57635;SDS011;43465;50.728;4.160;2023-10-19T10:13:49;15.65;;;2.85;;
57635;SDS011;43465;50.728;4.160;2023-10-19T10:16:19;10.65;;;2.70;;
57635;SDS011;43465;50.728;4.160;2023-10-19T10:18:47;16.90;;;2.70;;
57635;SDS011;43465;50.728;4.160;2023-10-19T10:21:21;8.98;;;2.60;;
57635;SDS011;43465;50.728;4.160;2023-10-19T10:23:53;12.48;;;2.92;;
57635;SDS011;43465;50.728;4.160;2023-10-19T10:26:21;13.63;;;2.80;;
57635;SDS011;43465;50.728;4.160;2023-10-19T10:31:45;11.20;;;2.60;;
57635;SDS011;43465;50.728;4.160;2023-10-19T10:39:36;8.20;;;2.80;;
57635;SDS011;43465;50.728;4.160;2023-10-19T10:42:03;13.55;;;2.70;;
57635;SDS011;43465;50.728;4.160;2023-10-19T10:44:46;16.65;;;2.80;;
57635;SDS011;43465;50.728;4.160;2023-10-19T10:47:18;10.65;;;2.60;;
57635;SDS011;43465;50.728;4.160;2023-10-19T10:49:58;12.40;;;2.53;;
57635;SDS011;43465;50.728;4.160;2023-10-19T10:55:20;11.07;;;3.15;;
57635;SDS011;43465;50.728;4.160;2023-10-19T10:57:45;9.43;;;2.53;;
57635;SDS011;43465;50.728;4.160;2023-10-19T11:00:11;11.27;;;3.08;;
57635;SDS011;43465;50.728;4.160;2023-10-19T11:02:44;9.77;;;2.95;;
57635;SDS011;43465;50.728;4.160;2023-10-19T11:05:23;9.20;;;2.72;;
57635;SDS011;43465;50.728;4.160;2023-10-19T11:10:34;9.63;;;2.30;;
57635;SDS011;43465;50.728;4.160;2023-10-19T11:13:05;9.68;;;2.15;;
57635;SDS011;43465;50.728;4.160;2023-10-19T11:15:32;7.85;;;2.03;;
57635;SDS011;43465;50.728;4.160;2023-10-19T11:17:59;11.60;;;2.38;;
57635;SDS011;43465;50.728;4.160;2023-10-19T11:20:25;7.10;;;2.17;;
57635;SDS011;43465;50.728;4.160;2023-10-19T11:22:55;8.43;;;2.13;;
57635;SDS011;43465;50.728;4.160;2023-10-19T11:25:22;9.02;;;2.10;;
57635;SDS011;43465;50.728;4.160;2023-10-19T11:27:49;6.53;;;1.73;;
57635;SDS011;43465;50.728;4.160;2023-10-19T11:30:28;7.18;;;1.85;;
57635;SDS011;43465;50.728;4.160;2023-10-19T11:32:56;4.35;;;1.50;;
57635;SDS011;43465;50.728;4.160;2023-10-19T11:35:26;5.35;;;1.70;;
57635;SDS011;43465;50.728;4.160;2023-10-19T11:37:55;6.23;;;2.13;;
57635;SDS011;43465;50.728;4.160;2023-10-19T11:40:22;6.38;;;1.50;;
57635;SDS011;43465;50.728;4.160;2023-10-19T11:42:49;4.78;;;1.75;;
57635;SDS011;43465;50.728;4.160;2023-10-19T11:45:15;5.28;;;1.63;;
57635;SDS011;43465;50.728;4.160;2023-10-19T11:47:42;3.83;;;1.60;;
57635;SDS011;43465;50.728;4.160;2023-10-19T11:50:08;5.28;;;1.30;;
57635;SDS011;43465;50.728;4.160;2023-10-19T11:52:37;3.63;;;1.40;;
57635;SDS011;43465;50.728;4.160;2023-10-19T11:55:03;7.38;;;1.60;;
57635;SDS011;43465;50.728;4.160;2023-10-19T11:57:30;2.35;;;1.13;;
57635;SDS011;43465;50.728;4.160;2023-10-19T11:59:57;6.88;;;1.70;;
57635;SDS011;43465;50.728;4.160;2023-10-19T12:02:24;3.20;;;1.00;;
57635;SDS011;43465;50.728;4.160;2023-10-19T12:04:50;5.63;;;1.65;;
57635;SDS011;43465;50.728;4.160;2023-10-19T12:07:15;3.35;;;1.25;;
57635;SDS011;43465;50.728;4.160;2023-10-19T12:09:41;2.80;;;1.08;;
57635;SDS011;43465;50.728;4.160;2023-10-19T12:12:08;3.58;;;1.10;;
57635;SDS011;43465;50.728;4.160;2023-10-19T12:14:34;4.15;;;1.17;;
57635;SDS011;43465;50.728;4.160;2023-10-19T12:17:01;2.33;;;1.45;;
57635;SDS011;43465;50.728;4.160;2023-10-19T12:19:29;3.60;;;1.20;;
57635;SDS011;43465;50.728;4.160;2023-10-19T12:21:55;2.15;;;1.20;;
57635;SDS011;43465;50.728;4.160;2023-10-19T12:24:21;2.67;;;1.25;;
57635;SDS011;43465;50.728;4.160;2023-10-19T12:26:48;3.45;;;1.33;;
57635;SDS011;43465;50.728;4.160;2023-10-19T12:29:13;3.25;;;1.13;;
57635;SDS011;43465;50.728;4.160;2023-10-19T12:31:42;2.35;;;1.33;;
57635;SDS011;43465;50.728;4.160;2023-10-19T12:34:08;3.22;;;1.30;;
57635;SDS011;43465;50.728;4.160;2023-10-19T12:36:36;2.28;;;1.17;;
57635;SDS011;43465;50.728;4.160;2023-10-19T12:39:02;2.35;;;1.00;;
57635;SDS011;43465;50.728;4.160;2023-10-19T12:41:31;2.55;;;1.13;;
57635;SDS011;43465;50.728;4.160;2023-10-19T12:43:58;2.67;;;1.20;;
57635;SDS011;43465;50.728;4.160;2023-10-19T12:46:25;2.67;;;1.27;;
57635;SDS011;43465;50.728;4.160;2023-10-19T12:48:54;4.35;;;1.25;;
57635;SDS011;43465;50.728;4.160;2023-10-19T12:51:21;1.30;;;0.90;;
57635;SDS011;43465;50.728;4.160;2023-10-19T12:53:51;3.25;;;1.02;;
57635;SDS011;43465;50.728;4.160;2023-10-19T12:56:17;3.88;;;1.13;;
57635;SDS011;43465;50.728;4.160;2023-10-19T12:58:48;1.83;;;1.13;;
57635;SDS011;43465;50.728;4.160;2023-10-19T13:01:15;1.88;;;1.13;;
57635;SDS011;43465;50.728;4.160;2023-10-19T13:03:47;3.25;;;1.25;;
57635;SDS011;43465;50.728;4.160;2023-10-19T13:06:16;2.45;;;0.98;;
57635;SDS011;43465;50.728;4.160;2023-10-19T13:08:42;2.40;;;1.00;;
57635;SDS011;43465;50.728;4.160;2023-10-19T13:11:08;2.20;;;0.88;;
57635;SDS011;43465;50.728;4.160;2023-10-19T13:13:35;0.93;;;0.70;;
57635;SDS011;43465;50.728;4.160;2023-10-19T13:16:04;3.25;;;1.05;;
57635;SDS011;43465;50.728;4.160;2023-10-19T13:18:34;4.50;;;1.17;;
57635;SDS011;43465;50.728;4.160;2023-10-19T13:21:01;3.40;;;0.90;;
57635;SDS011;43465;50.728;4.160;2023-10-19T13:23:30;3.63;;;1.20;;
57635;SDS011;43465;50.728;4.160;2023-10-19T13:25:58;1.67;;;0.75;;
57635;SDS011;43465;50.728;4.160;2023-10-19T13:28:41;2.15;;;1.10;;
57635;SDS011;43465;50.728;4.160;2023-10-19T13:31:07;3.47;;;1.10;;
57635;SDS011;43465;50.728;4.160;2023-10-19T13:33:38;2.40;;;0.90;;
57635;SDS011;43465;50.728;4.160;2023-10-19T13:36:05;3.20;;;0.85;;
57635;SDS011;43465;50.728;4.160;2023-10-19T13:38:31;1.60;;;0.90;;
57635;SDS011;43465;50.728;4.160;2023-10-19T13:40:57;1.60;;;1.05;;
57635;SDS011;43465;50.728;4.160;2023-10-19T13:43:23;1.52;;;0.70;;
57635;SDS011;43465;50.728;4.160;2023-10-19T13:45:49;2.80;;;0.90;;
57635;SDS011;43465;50.728;4.160;2023-10-19T13:48:18;1.85;;;0.98;;
57635;SDS011;43465;50.728;4.160;2023-10-19T13:50:48;2.22;;;0.90;;
57635;SDS011;43465;50.728;4.160;2023-10-19T13:53:14;1.77;;;1.10;;
57635;SDS011;43465;50.728;4.160;2023-10-19T13:55:41;3.60;;;0.98;;
57635;SDS011;43465;50.728;4.160;2023-10-19T13:58:07;3.25;;;1.00;;
57635;SDS011;43465;50.728;4.160;2023-10-19T14:00:33;1.67;;;0.90;;
57635;SDS011;43465;50.728;4.160;2023-10-19T14:02:59;2.45;;;1.10;;
57635;SDS011;43465;50.728;4.160;2023-10-19T14:05:26;2.58;;;1.20;;
57635;SDS011;43465;50.728;4.160;2023-10-19T14:07:52;1.40;;;0.85;;
57635;SDS011;43465;50.728;4.160;2023-10-19T14:10:18;2.55;;;0.90;;
57635;SDS011;43465;50.728;4.160;2023-10-19T14:12:47;3.40;;;0.60;;
57635;SDS011;43465;50.728;4.160;2023-10-19T14:15:17;2.17;;;0.90;;
57635;SDS011;43465;50.728;4.160;2023-10-19T14:17:44;1.85;;;0.70;;
57635;SDS011;43465;50.728;4.160;2023-10-19T14:20:12;1.92;;;0.80;;
57635;SDS011;43465;50.728;4.160;2023-10-19T14:22:41;1.25;;;1.10;;
57635;SDS011;43465;50.728;4.160;2023-10-19T14:25:08;1.55;;;0.90;;
57635;SDS011;43465;50.728;4.160;2023-10-19T14:27:38;1.85;;;0.80;;
57635;SDS011;43465;50.728;4.160;2023-10-19T14:30:04;1.25;;;0.90;;
57635;SDS011;43465;50.728;4.160;2023-10-19T14:32:30;3.33;;;1.00;;
57635;SDS011;43465;50.728;4.160;2023-10-19T14:34:56;2.95;;;0.80;;
57635;SDS011;43465;50.728;4.160;2023-10-19T14:37:21;1.95;;;0.90;;
57635;SDS011;43465;50.728;4.160;2023-10-19T14:39:47;2.20;;;0.80;;
57635;SDS011;43465;50.728;4.160;2023-10-19T14:42:12;1.10;;;1.00;;
57635;SDS011;43465;50.728;4.160;2023-10-19T14:44:38;3.75;;;0.77;;
57635;SDS011;43465;50.728;4.160;2023-10-19T14:47:05;2.60;;;1.05;;
57635;SDS011;43465;50.728;4.160;2023-10-19T14:49:31;1.83;;;0.90;;
57635;SDS011;43465;50.728;4.160;2023-10-19T14:51:57;3.38;;;0.90;;
57635;SDS011;43465;50.728;4.160;2023-10-19T14:54:23;2.45;;;1.10;;
57635;SDS011;43465;50.728;4.160;2023-10-19T14:56:49;2.15;;;0.75;;
57635;SDS011;43465;50.728;4.160;2023-10-19T14:59:15;2.47;;;1.13;;
57635;SDS011;43465;50.728;4.160;2023-10-19T15:01:40;3.90;;;0.95;;
57635;SDS011;43465;50.728;4.160;2023-10-19T15:04:06;1.77;;;0.80;;
57635;SDS011;43465;50.728;4.160;2023-10-19T15:06:32;3.13;;;1.20;;
57635;SDS011;43465;50.728;4.160;2023-10-19T15:08:58;1.85;;;0.90;;
57635;SDS011;43465;50.728;4.160;2023-10-19T15:11:23;2.88;;;0.90;;
57635;SDS011;43465;50.728;4.160;2023-10-19T15:13:50;3.70;;;1.10;;
57635;SDS011;43465;50.728;4.160;2023-10-19T15:16:16;2.58;;;0.90;;
57635;SDS011;43465;50.728;4.160;2023-10-19T15:18:42;1.42;;;0.70;;
57635;SDS011;43465;50.728;4.160;2023-10-19T15:21:08;2.75;;;0.90;;
57635;SDS011;43465;50.728;4.160;2023-10-19T15:23:34;1.63;;;0.90;;
57635;SDS011;43465;50.728;4.160;2023-10-19T15:26:00;2.80;;;1.15;;
57635;SDS011;43465;50.728;4.160;2023-10-19T15:28:26;4.05;;;1.27;;
57635;SDS011;43465;50.728;4.160;2023-10-19T15:30:57;1.77;;;1.05;;